createdAt,value
2019-04-21T00:02:31.995Z,33.14
2019-04-21T00:05:16.474Z,33.05
2019-04-21T00:07:49.024Z,33.15
2019-04-21T00:10:23.505Z,33.44
2019-04-21T00:12:45.918Z,33.62
2019-04-21T00:15:10.002Z,33.69
2019-04-21T00:17:31.618Z,33.78
2019-04-21T00:20:12.716Z,34.13
2019-04-21T00:22:44.027Z,34.47
2019-04-21T00:25:22.728Z,34.64
2019-04-21T00:27:50.097Z,34.67
2019-04-21T00:30:32.852Z,34.52
2019-04-21T00:32:50.311Z,34.50
2019-04-21T00:35:15.502Z,34.58
2019-04-21T00:38:00.882Z,34.84
2019-04-21T00:40:34.557Z,34.90
2019-04-21T00:42:59.986Z,34.88
2019-04-21T00:45:27.503Z,34.88
2019-04-21T00:48:03.869Z,34.97
2019-04-21T00:50:41.978Z,35.25
2019-04-21T00:53:23.060Z,35.02
2019-04-21T00:55:59.169Z,35.00
2019-04-21T00:58:30.089Z,35.23
2019-04-21T01:01:00.451Z,35.32
2019-04-21T01:03:26.740Z,35.37
2019-04-21T01:05:56.080Z,35.54
2019-04-21T01:08:28.249Z,35.73
2019-04-21T01:10:51.622Z,35.82
2019-04-21T01:13:32.104Z,35.98
2019-04-21T01:15:59.559Z,36.02
2019-04-21T01:18:28.426Z,36.11
2019-04-21T01:20:39.438Z,36.28
2019-04-21T01:23:08.597Z,36.43
2019-04-21T01:25:46.066Z,36.50
2019-04-21T01:28:27.165Z,36.57
2019-04-21T01:30:56.842Z,36.50
2019-04-21T01:33:33.582Z,36.54
2019-04-21T01:35:58.050Z,36.74
2019-04-21T01:38:34.193Z,36.90
2019-04-21T01:41:07.070Z,36.86
2019-04-21T01:43:33.852Z,36.98
2019-04-21T01:46:04.663Z,37.11
2019-04-21T01:48:30.667Z,37.19
2019-04-21T01:51:00.585Z,37.25
2019-04-21T01:54:11.190Z,37.46
2019-04-21T01:56:55.718Z,37.65
2019-04-21T01:59:25.694Z,37.82
2019-04-21T02:02:02.353Z,37.99
2019-04-21T02:04:36.568Z,38.06
2019-04-21T02:07:03.185Z,38.22
2019-04-21T02:09:38.373Z,38.25
2019-04-21T02:12:10.565Z,38.42
2019-04-21T02:14:46.086Z,38.58
2019-04-21T02:17:13.207Z,38.60
2019-04-21T02:19:39.042Z,38.63
2019-04-21T02:22:04.868Z,38.82
2019-04-21T02:24:49.907Z,38.83
2019-04-21T02:27:12.996Z,38.94
2019-04-21T02:29:49.020Z,38.81
2019-04-21T02:35:06.525Z,38.94
2019-04-21T02:37:42.534Z,39.04
2019-04-21T02:42:31.536Z,39.36
2019-04-21T02:44:59.833Z,39.46
2019-04-21T02:47:36.723Z,39.71
2019-04-21T02:52:35.426Z,40.02
2019-04-21T02:55:02.693Z,40.18
2019-04-21T02:57:34.729Z,40.35
2019-04-21T03:00:15.981Z,40.28
2019-04-21T03:02:55.122Z,40.50
2019-04-21T03:08:03.470Z,40.79
2019-04-21T03:10:53.240Z,40.79
2019-04-21T03:13:13.948Z,40.98
2019-04-21T03:15:59.144Z,41.17
2019-04-21T03:21:01.235Z,41.40
2019-04-21T03:28:14.093Z,41.78
2019-04-21T03:38:18.987Z,41.91
2019-04-21T03:40:39.977Z,41.92
2019-04-21T03:43:20.700Z,42.07
2019-04-21T03:45:49.613Z,42.02
2019-04-21T03:48:20.814Z,42.24
2019-04-21T03:50:49.169Z,42.25
2019-04-21T04:04:18.040Z,42.44
2019-04-21T04:07:05.651Z,42.69
2019-04-21T04:09:26.154Z,42.74
2019-04-21T04:11:51.076Z,42.66
2019-04-21T04:14:26.800Z,42.59
2019-04-21T04:19:26.384Z,42.89
2019-04-21T04:24:34.346Z,42.96
2019-04-21T04:26:57.008Z,42.90
2019-04-21T04:29:24.520Z,42.94
2019-04-21T04:32:14.618Z,43.02
2019-04-21T04:34:47.333Z,43.09
2019-04-21T04:37:05.437Z,43.30
2019-04-21T04:40:10.864Z,43.34
2019-04-21T04:42:40.742Z,43.34
2019-04-21T04:47:34.883Z,43.47
2019-04-21T04:50:05.313Z,43.59
2019-04-21T04:52:42.388Z,43.65
2019-04-21T04:55:06.837Z,43.65
2019-04-21T04:57:49.051Z,43.82
2019-04-21T05:00:18.186Z,43.90
2019-04-21T05:12:45.515Z,43.56
2019-04-21T05:15:11.538Z,43.36
2019-04-21T05:17:43.275Z,43.31
2019-04-21T05:20:15.798Z,43.40
2019-04-21T05:22:44.253Z,43.37
2019-04-21T05:25:05.516Z,43.32
2019-04-21T05:27:44.829Z,43.30
2019-04-21T05:30:30.699Z,43.32
2019-04-21T05:33:03.641Z,43.30
2019-04-21T05:36:04.791Z,43.22
2019-04-21T05:38:47.751Z,43.11
2019-04-21T05:41:13.098Z,42.76
2019-04-21T05:43:51.448Z,42.41
2019-04-21T05:46:25.229Z,42.08
2019-04-21T05:48:59.283Z,41.81
2019-04-21T05:51:27.155Z,41.38
2019-04-21T05:54:06.961Z,40.74
2019-04-21T05:56:30.586Z,40.30
2019-04-21T05:59:02.314Z,40.26
2019-04-21T06:02:11.410Z,39.85
2019-04-21T06:04:26.207Z,39.53
2019-04-21T06:06:48.059Z,39.12
2019-04-21T06:09:14.569Z,38.79
2019-04-21T06:11:47.879Z,38.63
2019-04-21T06:14:14.192Z,38.35
2019-04-21T06:16:48.233Z,37.85
2019-04-21T06:19:23.622Z,36.69
2019-04-21T06:21:45.277Z,36.33
2019-04-21T06:24:26.981Z,35.14
2019-04-21T06:26:59.252Z,34.14
2019-04-21T06:29:23.763Z,32.87
2019-04-21T06:34:27.775Z,32.14
2019-04-21T06:37:08.177Z,31.41
2019-04-21T06:42:02.545Z,30.01
2019-04-21T06:44:41.583Z,29.50
2019-04-21T06:47:15.586Z,28.84
2019-04-21T06:49:40.129Z,28.78
2019-04-21T06:52:30.552Z,28.81
2019-04-21T06:57:16.901Z,27.28
2019-04-21T06:59:40.562Z,26.57
2019-04-21T07:02:33.355Z,26.11
2019-04-21T07:04:50.231Z,25.61
2019-04-21T07:07:18.921Z,25.55
2019-04-21T07:09:51.182Z,25.10
2019-04-21T07:12:13.901Z,24.39
2019-04-21T07:14:47.883Z,23.50
2019-04-21T07:17:24.701Z,23.36
2019-04-21T07:19:55.369Z,22.78
2019-04-21T07:22:25.588Z,22.56
2019-04-21T07:24:48.209Z,21.69
2019-04-21T07:27:22.281Z,21.35
2019-04-21T07:29:58.593Z,21.49
2019-04-21T07:32:29.878Z,20.93
2019-04-21T07:35:00.126Z,20.80
2019-04-21T07:37:23.887Z,19.53
2019-04-21T07:39:54.840Z,19.40
2019-04-21T07:42:24.369Z,18.93
2019-04-21T07:45:04.584Z,18.55
2019-04-21T07:47:50.780Z,17.96
2019-04-21T07:50:35.018Z,17.74
2019-04-21T07:53:21.156Z,17.70
2019-04-21T07:58:14.975Z,17.02
2019-04-21T08:00:53.012Z,16.42
2019-04-21T08:03:25.039Z,16.46
2019-04-21T08:05:52.684Z,15.96
2019-04-21T08:08:17.915Z,15.92
2019-04-21T08:10:47.656Z,15.69
2019-04-21T08:13:28.963Z,14.61
2019-04-21T08:15:52.953Z,13.93
2019-04-21T08:18:28.350Z,14.15
2019-04-21T08:20:58.585Z,14.32
2019-04-21T08:23:25.410Z,13.91
2019-04-21T08:26:06.486Z,13.42
2019-04-21T08:28:35.088Z,13.06
2019-04-21T08:31:01.314Z,12.23
2019-04-21T08:38:35.849Z,11.27
2019-04-21T08:46:08.156Z,10.26
2019-04-21T08:48:35.167Z,10.18
2019-04-21T08:51:26.149Z,9.95
2019-04-21T08:53:41.135Z,9.99
2019-04-21T08:56:31.904Z,9.58
2019-04-21T08:59:28.462Z,9.01
2019-04-21T09:02:10.847Z,9.06
2019-04-21T09:04:35.231Z,9.08
2019-04-21T09:07:28.816Z,8.77
2019-04-21T09:09:45.722Z,8.41
2019-04-21T09:12:10.587Z,8.77
2019-04-21T09:14:41.472Z,8.39
2019-04-21T09:17:08.049Z,8.63
2019-04-21T09:19:51.045Z,8.56
2019-04-21T09:22:13.207Z,8.54
2019-04-21T09:24:46.985Z,8.34
2019-04-21T09:27:08.522Z,8.24
2019-04-21T09:29:35.443Z,8.25
2019-04-21T09:31:59.579Z,8.43
2019-04-21T09:34:33.181Z,7.78
2019-04-21T09:37:16.523Z,7.59
2019-04-21T09:39:33.215Z,8.04
2019-04-21T09:42:03.270Z,7.78
2019-04-21T09:44:37.169Z,7.57
2019-04-21T09:47:05.094Z,7.14
2019-04-21T09:49:35.613Z,6.83
2019-04-21T09:52:06.676Z,6.82
2019-04-21T09:54:45.833Z,6.47
2019-04-21T09:57:14.479Z,6.61
2019-04-21T09:59:40.669Z,6.56
2019-04-21T10:02:16.120Z,6.58
2019-04-21T10:04:40.063Z,6.32
2019-04-21T10:07:21.910Z,6.00
2019-04-21T10:09:40.136Z,5.33
2019-04-21T10:12:09.818Z,5.19
2019-04-21T10:14:39.095Z,5.60
2019-04-21T10:17:23.946Z,5.26
2019-04-21T10:19:53.202Z,4.80
2019-04-21T10:22:23.204Z,4.47
2019-04-21T10:24:52.506Z,4.60
2019-04-21T10:27:21.553Z,4.44
2019-04-21T10:29:52.185Z,4.71
2019-04-21T10:32:23.243Z,4.35
2019-04-21T10:34:52.861Z,4.26
2019-04-21T10:37:36.298Z,3.88
2019-04-21T10:39:53.822Z,3.79
2019-04-21T10:42:23.692Z,3.72
2019-04-21T10:44:52.845Z,3.86
2019-04-21T10:47:22.785Z,4.04
2019-04-21T10:49:52.844Z,4.00
2019-04-21T10:52:30.907Z,4.03
2019-04-21T10:55:17.199Z,4.02
2019-04-21T10:57:32.563Z,4.01
2019-04-21T11:00:01.762Z,3.98
2019-04-21T11:02:41.121Z,3.93
2019-04-21T11:05:10.264Z,4.08
2019-04-21T11:08:00.924Z,4.09
2019-04-21T11:10:20.430Z,4.17
2019-04-21T11:12:50.774Z,3.94
2019-04-21T11:15:21.088Z,3.76
2019-04-21T11:17:50.635Z,4.17
2019-04-21T11:20:20.183Z,4.19
2019-04-21T11:22:49.509Z,4.29
2019-04-21T11:25:19.782Z,4.23
2019-04-21T11:27:49.160Z,4.45
2019-04-21T11:30:18.235Z,3.72
2019-04-21T11:32:48.263Z,3.88
2019-04-21T11:35:19.213Z,3.98
2019-04-21T11:37:48.431Z,4.05
2019-04-21T11:40:19.802Z,3.69
2019-04-21T11:42:48.315Z,4.13
2019-04-21T11:45:32.867Z,4.46
2019-04-21T11:48:12.430Z,3.98
2019-04-21T11:50:41.629Z,4.31
2019-04-21T11:53:10.802Z,5.20
2019-04-21T11:55:43.602Z,6.13
2019-04-21T11:58:11.880Z,7.30
2019-04-21T12:00:42.160Z,8.38
2019-04-21T12:03:14.860Z,9.07
2019-04-21T12:05:43.399Z,9.86
2019-04-21T12:08:22.982Z,10.29
2019-04-21T12:10:43.317Z,9.53
2019-04-21T12:13:12.408Z,10.13
2019-04-21T12:15:42.975Z,10.78
2019-04-21T12:18:12.172Z,11.15
2019-04-21T12:20:41.256Z,11.54
2019-04-21T12:23:10.310Z,11.96
2019-04-21T12:25:43.079Z,11.71
2019-04-21T12:28:12.226Z,11.70
2019-04-21T12:30:42.035Z,11.85
2019-04-21T12:33:18.448Z,12.03
2019-04-21T12:35:48.194Z,12.28
2019-04-21T12:38:29.321Z,12.54
2019-04-21T12:40:48.576Z,13.14
2019-04-21T12:43:18.791Z,13.06
2019-04-21T12:45:47.932Z,13.22
2019-04-21T12:48:18.043Z,13.32
2019-04-21T12:50:47.934Z,13.33
2019-04-21T12:53:17.886Z,13.57
2019-04-21T12:55:48.489Z,14.01
2019-04-21T12:58:19.369Z,14.43
2019-04-21T13:00:49.604Z,14.60
2019-04-21T13:03:21.651Z,13.99
2019-04-21T13:05:49.765Z,12.40
2019-04-21T13:08:19.772Z,12.34
2019-04-21T13:10:48.890Z,12.36
2019-04-21T13:13:17.917Z,12.46
2019-04-21T13:15:47.348Z,12.41
2019-04-21T13:18:16.546Z,12.25
2019-04-21T13:20:46.412Z,12.22
2019-04-21T13:23:16.790Z,12.41
2019-04-21T13:25:46.003Z,12.64
2019-04-21T13:28:15.010Z,12.59
2019-04-21T13:30:44.409Z,12.43
2019-04-21T13:33:13.735Z,12.55
2019-04-21T13:35:42.798Z,12.65
2019-04-21T13:38:19.869Z,12.90
2019-04-21T13:41:21.464Z,12.78
2019-04-21T13:43:39.257Z,12.81
2019-04-21T13:46:09.883Z,12.94
2019-04-21T13:48:40.343Z,12.86
2019-04-21T13:51:11.085Z,12.91
2019-04-21T13:53:40.224Z,12.85
2019-04-21T13:56:10.661Z,13.46
2019-04-21T13:58:40.140Z,14.00
2019-04-21T14:01:09.682Z,14.30
2019-04-21T14:03:39.700Z,14.40
2019-04-21T14:06:08.809Z,14.33
2019-04-21T14:08:40.174Z,14.50
2019-04-21T14:11:09.295Z,14.77
2019-04-21T14:13:38.608Z,15.03
2019-04-21T14:16:08.102Z,15.03
2019-04-21T14:18:38.635Z,15.05
2019-04-21T14:21:07.634Z,15.15
2019-04-21T14:23:43.312Z,15.23
2019-04-21T14:26:08.685Z,15.21
2019-04-21T14:28:38.911Z,15.81
2019-04-21T14:31:08.278Z,15.82
2019-04-21T14:33:38.245Z,16.35
2019-04-21T14:36:08.608Z,16.33
2019-04-21T14:38:38.603Z,16.47
2019-04-21T14:41:08.260Z,16.58
2019-04-21T14:43:38.517Z,16.73
2019-04-21T14:46:21.644Z,16.81
2019-04-21T14:49:09.079Z,16.70
2019-04-21T14:51:45.394Z,16.80
2019-04-21T14:54:42.635Z,17.04
2019-04-21T14:57:11.804Z,17.09
2019-04-21T14:59:40.842Z,17.04
2019-04-21T15:02:09.913Z,17.18
2019-04-21T15:04:39.774Z,17.47
2019-04-21T15:07:09.669Z,17.62
2019-04-21T15:09:41.047Z,17.63
2019-04-21T15:12:10.064Z,17.49
2019-04-21T15:14:40.246Z,17.49
2019-04-21T15:17:09.405Z,17.89
2019-04-21T15:19:38.554Z,17.90
2019-04-21T15:22:08.230Z,17.77
2019-04-21T15:24:38.310Z,17.76
2019-04-21T15:27:07.481Z,17.87
2019-04-21T15:29:36.671Z,18.12
2019-04-21T15:32:06.358Z,18.20
2019-04-21T15:34:36.083Z,18.20
2019-04-21T15:37:06.163Z,18.01
2019-04-21T15:39:35.320Z,18.01
2019-04-21T15:42:04.388Z,17.69
2019-04-21T15:44:34.645Z,17.67
2019-04-21T15:47:04.072Z,17.79
2019-04-21T15:49:58.845Z,17.97
2019-04-21T15:52:22.257Z,17.93
2019-04-21T15:54:52.463Z,17.93
2019-04-21T15:57:33.786Z,18.17
2019-04-21T16:00:11.294Z,18.10
2019-04-21T16:02:42.506Z,18.09
2019-04-21T16:05:13.052Z,18.26
2019-04-21T16:07:42.390Z,18.28
2019-04-21T16:10:17.382Z,18.27
2019-04-21T16:12:43.663Z,18.31
2019-04-21T16:15:12.779Z,18.61
2019-04-21T16:17:41.829Z,18.77
2019-04-21T16:20:12.216Z,18.96
2019-04-21T16:22:44.514Z,18.96
2019-04-21T16:25:15.026Z,19.06
2019-04-21T16:27:45.415Z,19.00
2019-04-21T16:30:15.603Z,18.96
2019-04-21T16:32:46.012Z,18.98
2019-04-21T16:35:16.914Z,18.89
2019-04-21T16:37:47.598Z,19.06
2019-04-21T16:40:17.186Z,19.09
2019-04-21T16:42:47.924Z,19.16
2019-04-21T16:45:16.976Z,19.12
2019-04-21T16:47:48.904Z,19.04
2019-04-21T16:50:17.104Z,19.10
2019-04-21T16:53:08.301Z,19.10
2019-04-21T16:55:46.899Z,19.14
2019-04-21T16:58:32.627Z,19.10
2019-04-21T17:01:11.020Z,19.19
2019-04-21T17:03:36.821Z,19.14
2019-04-21T17:06:06.998Z,19.15
2019-04-21T17:08:36.872Z,19.24
2019-04-21T17:11:14.013Z,19.38
2019-04-21T17:13:38.296Z,19.50
2019-04-21T17:16:36.456Z,19.47
2019-04-21T17:18:50.864Z,19.50
2019-04-21T17:21:11.142Z,20.11
2019-04-21T17:23:42.151Z,19.96
2019-04-21T17:26:11.179Z,20.27
2019-04-21T17:28:40.715Z,19.99
2019-04-21T17:31:10.868Z,19.86
2019-04-21T17:33:41.390Z,19.82
2019-04-21T17:36:11.315Z,19.88
2019-04-21T17:38:41.821Z,20.01
2019-04-21T17:41:21.518Z,20.20
2019-04-21T17:43:41.952Z,20.42
2019-04-21T17:46:18.074Z,20.80
2019-04-21T17:48:42.981Z,20.81
2019-04-21T17:51:17.678Z,21.30
2019-04-21T17:54:17.552Z,21.41
2019-04-21T17:57:07.442Z,21.93
2019-04-21T17:59:45.139Z,22.42
2019-04-21T18:01:59.426Z,22.10
2019-04-21T18:04:32.192Z,22.47
2019-04-21T18:07:26.106Z,22.16
2019-04-21T18:10:00.923Z,22.48
2019-04-21T18:12:25.026Z,22.33
2019-04-21T18:14:52.949Z,22.40
2019-04-21T18:17:14.217Z,22.47
2019-04-21T18:19:47.342Z,22.53
2019-04-21T18:22:37.663Z,22.92
2019-04-21T18:25:09.895Z,22.72
2019-04-21T18:27:36.634Z,23.09
2019-04-21T18:30:28.387Z,22.98
2019-04-21T18:32:58.638Z,23.40
2019-04-21T18:35:36.513Z,23.40
2019-04-21T18:38:20.722Z,23.46
2019-04-21T18:40:47.437Z,23.36
2019-04-21T18:43:53.145Z,23.37
2019-04-21T18:46:25.891Z,23.57
2019-04-21T18:48:55.227Z,23.87
2019-04-21T18:51:34.711Z,23.68
2019-04-21T18:54:26.951Z,23.83
2019-04-21T18:56:33.819Z,24.17
2019-04-21T18:59:04.371Z,24.19
2019-04-21T19:01:36.520Z,24.55
2019-04-21T19:04:13.468Z,24.73
2019-04-21T19:06:51.433Z,24.51
2019-04-21T19:09:47.587Z,24.94
2019-04-21T19:12:06.046Z,25.26
2019-04-21T19:14:50.991Z,25.47
2019-04-21T19:17:39.583Z,25.81
2019-04-21T19:19:46.473Z,25.79
2019-04-21T19:22:09.057Z,26.12
2019-04-21T19:27:19.150Z,26.58
2019-04-21T19:29:53.955Z,26.95
2019-04-21T19:32:29.035Z,27.21
2019-04-21T19:34:32.563Z,27.41
2019-04-21T19:37:05.801Z,27.41
2019-04-21T19:39:43.419Z,27.51
2019-04-21T19:42:14.463Z,27.72
2019-04-21T19:44:47.229Z,27.69
2019-04-21T19:47:25.676Z,27.81
2019-04-21T19:49:55.157Z,27.85
2019-04-21T19:52:11.524Z,28.17
2019-04-21T19:54:39.780Z,28.37
2019-04-21T19:57:07.022Z,28.39
2019-04-21T19:59:42.655Z,28.39
2019-04-21T20:02:08.858Z,28.67
2019-04-21T20:04:43.879Z,28.78
2019-04-21T20:07:22.873Z,29.06
2019-04-21T20:10:02.112Z,29.17
2019-04-21T20:12:35.581Z,29.37
2019-04-21T20:15:06.388Z,29.56
2019-04-21T20:17:31.068Z,29.89
2019-04-21T20:19:44.542Z,30.08
2019-04-21T20:22:14.723Z,30.19
2019-04-21T20:24:50.035Z,30.38
2019-04-21T20:27:19.795Z,30.40
2019-04-21T20:30:01.996Z,30.43
2019-04-21T20:32:38.271Z,30.75
2019-04-21T20:35:06.749Z,30.88
2019-04-21T20:37:31.736Z,30.94
2019-04-21T20:39:57.791Z,31.10
2019-04-21T20:42:29.359Z,31.40
2019-04-21T20:45:24.961Z,31.45
2019-04-21T20:47:30.932Z,31.71
2019-04-21T20:50:11.405Z,31.71
2019-04-21T20:52:44.782Z,31.89
2019-04-21T20:55:06.826Z,31.60
2019-04-21T20:57:39.911Z,31.59
2019-04-21T21:00:15.422Z,31.84
2019-04-21T21:02:46.957Z,31.92
2019-04-21T21:05:14.189Z,32.23
2019-04-21T21:08:08.631Z,32.51
2019-04-21T21:10:17.511Z,32.61
2019-04-21T21:15:10.078Z,33.05
2019-04-21T21:20:24.865Z,33.26
2019-04-21T21:22:48.289Z,33.20
2019-04-21T21:25:32.183Z,33.23
2019-04-21T21:27:50.234Z,33.46
2019-04-21T21:30:24.615Z,33.82
2019-04-21T21:32:54.662Z,33.98
2019-04-21T21:35:21.423Z,34.17
2019-04-21T21:38:03.599Z,34.29
2019-04-21T21:40:27.118Z,34.42
2019-04-21T21:42:44.283Z,34.64
2019-04-21T21:45:17.860Z,34.64
2019-04-21T21:48:04.528Z,34.68
2019-04-21T21:50:23.927Z,34.68
2019-04-21T21:52:55.105Z,34.77
2019-04-21T21:55:15.999Z,34.93
2019-04-21T21:57:51.789Z,34.91
2019-04-21T22:00:17.508Z,35.09
2019-04-21T22:02:51.308Z,35.13
2019-04-21T22:05:23.896Z,35.44
2019-04-21T22:07:49.042Z,35.37
2019-04-21T22:10:18.327Z,35.30
2019-04-21T22:12:57.115Z,35.42
2019-04-21T22:15:24.347Z,35.47
2019-04-21T22:18:12.091Z,35.81
2019-04-21T22:20:40.118Z,35.96
2019-04-21T22:22:59.414Z,36.15
2019-04-21T22:25:26.640Z,36.11
2019-04-21T22:27:53.655Z,36.29
2019-04-21T22:30:29.934Z,36.32
2019-04-21T22:33:00.727Z,36.48
2019-04-21T22:35:33.494Z,36.40
2019-04-21T22:38:12.356Z,36.48
2019-04-21T22:40:44.069Z,36.57
2019-04-21T22:43:07.124Z,36.68
2019-04-21T22:45:29.313Z,36.86
2019-04-21T22:48:05.346Z,36.90
2019-04-21T22:50:30.821Z,36.93
2019-04-21T22:53:04.732Z,37.17
2019-04-21T22:55:34.732Z,37.12
2019-04-21T22:58:03.499Z,37.04
2019-04-21T23:00:40.052Z,36.83
2019-04-21T23:03:12.960Z,35.31
2019-04-21T23:05:38.229Z,35.79
2019-04-21T23:08:07.204Z,35.69
2019-04-21T23:10:37.148Z,35.85
2019-04-21T23:13:12.219Z,35.75
2019-04-21T23:15:42.360Z,35.44
2019-04-21T23:18:24.467Z,35.01
2019-04-21T23:20:54.050Z,35.03
2019-04-21T23:23:30.234Z,34.67
2019-04-21T23:25:55.653Z,34.48
2019-04-21T23:28:34.563Z,34.05
2019-04-21T23:31:00.436Z,33.89
2019-04-21T23:33:15.846Z,33.50
2019-04-21T23:35:46.080Z,33.45
2019-04-21T23:38:16.025Z,33.34
2019-04-21T23:40:50.523Z,33.30
2019-04-21T23:43:22.317Z,33.10
2019-04-21T23:45:48.214Z,32.96
2019-04-21T23:48:30.025Z,32.79
2019-04-21T23:50:54.734Z,32.74
2019-04-21T23:53:19.719Z,32.84
2019-04-21T23:55:49.498Z,33.01
2019-04-21T23:58:25.074Z,33.12
